Time;durP1;ratioP1;P1;durP2;ratioP2;P2;SDS_P1;SDS_P2;PMS_P1;PMS_P2;Temp;Humidity;BMP_temperature;BMP_pressure;BME280_temperature;BME280_humidity;BME280_pressure;Samples;Min_cycle;Max_cycle;Signal;HPM_P1;HPM_P2
2023/09/15 04:33:18;;;;;;;;;9.00;5.75;;;;;29.29;38.70;101137.78;5037843;28;46338;-65
2023/09/15 04:35:44;;;;;;;;;6.25;6.25;;;;;29.22;37.75;101131.28;5039451;28;50358;-65
2023/09/15 04:38:09;;;;;;;;;10.25;7.00;;;;;29.15;37.87;101128.41;5039555;28;45479;-65
2023/09/15 04:40:34;;;;;;;;;6.00;5.50;;;;;29.23;38.05;101131.09;5039488;28;52684;-65
2023/09/15 04:42:59;;;;;;;;;9.00;7.00;;;;;29.27;38.38;101131.59;5039148;28;45363;-65
2023/09/15 04:45:26;;;;;;;;;8.50;5.50;;;;;29.26;37.77;101132.66;5039156;28;58595;-66
2023/09/15 04:47:51;;;;;;;;;5.75;5.75;;;;;29.15;38.29;101127.53;5039574;28;45506;-65
2023/09/15 04:50:16;;;;;;;;;7.50;7.50;;;;;29.16;38.05;101132.88;5039542;28;45225;-65
2023/09/15 04:52:42;;;;;;;;;5.00;5.00;;;;;29.12;38.35;101122.38;5039307;28;46147;-66
2023/09/15 04:55:07;;;;;;;;;6.00;6.00;;;;;29.14;38.03;101123.06;5039725;28;45170;-65
2023/09/15 04:57:33;;;;;;;;;6.75;5.50;;;;;29.17;38.59;101123.56;5037758;28;45284;-65
2023/09/15 05:00:00;;;;;;;;;5.75;5.75;;;;;29.11;38.52;101104.94;5039219;28;45467;-65
2023/09/15 05:02:26;;;;;;;;;8.00;6.50;;;;;29.28;38.31;101113.97;5039107;28;47169;-66
2023/09/15 05:04:52;;;;;;;;;5.75;5.50;;;;;29.21;38.36;101124.91;5039009;28;45355;-65
2023/09/15 05:07:18;;;;;;;;;6.75;6.75;;;;;29.26;38.57;101119.69;5039263;28;45431;-66
2023/09/15 05:09:43;;;;;;;;;6.50;6.00;;;;;29.23;38.21;101125.59;5039320;28;45608;-66
2023/09/15 05:12:09;;;;;;;;;7.50;7.50;;;;;29.12;37.89;101120.47;5039138;28;46374;-66
2023/09/15 05:14:34;;;;;;;;;7.75;7.75;;;;;29.20;38.52;101128.69;5038999;28;45443;-65
2023/09/15 05:17:00;;;;;;;;;6.00;6.00;;;;;29.18;38.48;101139.06;5039098;28;45780;-63
2023/09/15 05:19:25;;;;;;;;;8.00;8.00;;;;;29.09;38.34;101118.09;5038854;28;45384;-65
2023/09/15 05:21:50;;;;;;;;;7.50;7.00;;;;;29.27;38.08;101137.13;5039004;28;45318;-65
2023/09/15 05:24:16;;;;;;;;;8.75;8.75;;;;;29.22;38.00;101134.91;5039051;28;45341;-66
2023/09/15 05:26:41;;;;;;;;;8.00;6.75;;;;;29.19;37.93;101131.63;5038663;28;45721;-65
2023/09/15 05:29:06;;;;;;;;;10.25;8.00;;;;;29.29;37.89;101133.13;5038364;28;57002;-66
2023/09/15 05:31:32;;;;;;;;;5.00;5.00;;;;;29.31;38.47;101136.59;5038273;28;51571;-66
2023/09/15 05:34:00;;;;;;;;;10.00;10.00;;;;;29.38;37.94;101142.25;5038884;28;45276;-65
2023/09/15 05:36:26;;;;;;;;;8.25;8.25;;;;;29.39;37.94;101134.84;5038716;28;45447;-64
2023/09/15 05:38:52;;;;;;;;;6.50;6.50;;;;;29.41;37.49;101130.84;5038796;28;45340;-65
2023/09/15 05:41:18;;;;;;;;;9.50;9.50;;;;;29.51;37.97;101136.16;5038831;28;46725;-64
2023/09/15 05:43:44;;;;;;;;;9.00;8.50;;;;;29.51;38.10;101134.25;5038630;28;45443;-66
2023/09/15 05:46:09;;;;;;;;;7.00;7.00;;;;;29.45;38.25;101136.84;5038563;28;45351;-65
2023/09/15 05:48:35;;;;;;;;;6.75;6.75;;;;;29.47;37.63;101134.78;5038657;28;45372;-67
2023/09/15 05:51:03;;;;;;;;;6.50;6.50;;;;;29.47;38.29;101134.78;5038662;28;45361;-67
2023/09/15 05:53:28;;;;;;;;;6.50;6.50;;;;;29.49;38.24;101121.66;5038881;28;45257;-68
2023/09/15 05:55:55;;;;;;;;;7.00;7.00;;;;;29.53;37.79;101125.75;5036801;28;50446;-67
2023/09/15 05:58:21;;;;;;;;;7.75;7.75;;;;;29.54;37.76;101130.22;5038473;28;45379;-68
2023/09/15 06:00:46;;;;;;;;;8.50;8.50;;;;;29.51;37.80;101130.63;5038232;28;45293;-67
2023/09/15 06:03:12;;;;;;;;;7.75;7.75;;;;;29.51;38.01;101123.19;5038430;28;45412;-68
2023/09/15 06:05:37;;;;;;;;;8.00;8.00;;;;;29.54;38.40;101133.84;5038347;28;46680;-68
2023/09/15 06:08:03;;;;;;;;;7.25;7.25;;;;;29.59;38.42;101136.09;5038714;28;45484;-60
2023/09/15 06:10:29;;;;;;;;;10.75;9.25;;;;;29.61;38.16;101131.19;5038311;28;47466;-59
2023/09/15 06:12:54;;;;;;;;;12.50;9.25;;;;;29.68;37.70;101135.84;5038246;28;45328;-60
2023/09/15 06:15:21;;;;;;;;;9.75;8.75;;;;;29.72;38.19;101139.94;5038062;28;52062;-60
2023/09/15 06:17:47;;;;;;;;;7.75;7.75;;;;;29.75;37.58;101133.19;5038494;28;45307;-60
2023/09/15 06:20:12;;;;;;;;;8.75;8.75;;;;;29.80;38.26;101146.44;5038237;28;45466;-60
2023/09/15 06:22:37;;;;;;;;;9.50;7.75;;;;;29.71;37.92;101134.59;5038333;28;45148;-60
2023/09/15 06:25:04;;;;;;;;;8.75;8.75;;;;;29.74;37.59;101145.28;5038231;28;45309;-59
2023/09/15 06:27:32;;;;;;;;;8.00;8.00;;;;;29.66;37.41;101134.28;5036722;28;45463;-60
2023/09/15 06:29:58;;;;;;;;;8.75;8.75;;;;;29.74;38.02;101128.69;5037702;28;46385;-60
2023/09/15 06:32:24;;;;;;;;;10.25;8.75;;;;;29.67;37.70;101134.13;5039403;28;45398;-60
2023/09/15 06:34:49;;;;;;;;;7.25;7.25;;;;;29.71;37.44;101129.91;5041704;28;45312;-59
2023/09/15 06:37:15;;;;;;;;;10.00;7.75;;;;;29.75;37.88;101135.09;5041719;28;45355;-61
2023/09/15 06:39:40;;;;;;;;;8.75;8.75;;;;;29.68;37.43;101137.75;5040038;28;48011;-60
2023/09/15 06:42:06;;;;;;;;;10.25;8.25;;;;;29.70;37.59;101130.97;5041544;28;51295;-61
2023/09/15 06:44:35;;;;;;;;;10.25;8.50;;;;;29.71;37.61;101129.91;5041223;28;45264;-60
2023/09/15 06:47:01;;;;;;;;;10.75;9.00;;;;;29.68;37.16;101135.84;5041439;28;45331;-59
2023/09/15 06:49:27;;;;;;;;;9.00;9.00;;;;;29.62;37.22;101127.41;5041184;28;46175;-60
2023/09/15 06:51:53;;;;;;;;;9.00;8.50;;;;;29.62;37.63;101127.41;5041391;28;45355;-59
2023/09/15 06:54:19;;;;;;;;;7.75;7.75;;;;;29.72;37.88;101141.84;5039395;28;45412;-60
2023/09/15 06:56:44;;;;;;;;;10.75;10.75;;;;;29.72;37.70;101136.31;5041382;28;45639;-59
2023/09/15 06:59:09;;;;;;;;;10.00;10.00;;;;;29.70;37.93;101142.00;5040340;28;59588;-60
2023/09/15 07:01:35;;;;;;;;;9.50;9.50;;;;;29.71;37.48;101140.97;5041263;28;45352;-59
2023/09/15 07:04:00;;;;;;;;;10.75;8.50;;;;;29.77;37.70;101144.06;5040584;28;55287;-60
2023/09/15 07:06:25;;;;;;;;;9.25;8.25;;;;;29.71;37.59;101134.59;5039305;28;51874;-61
2023/09/15 07:08:51;;;;;;;;;10.50;10.50;;;;;29.59;37.29;101125.03;5023516;28;47604;-61
2023/09/15 07:11:16;;;;;;;;;10.00;10.00;;;;;29.60;37.20;101126.75;5037725;28;45382;-59
2023/09/15 07:13:41;;;;;;;;;11.50;9.00;;;;;29.61;37.42;101131.19;5040107;28;45324;-59
2023/09/15 07:16:07;;;;;;;;;8.25;8.25;;;;;29.72;37.71;101128.88;5040734;28;45412;-60
2023/09/15 07:18:32;;;;;;;;;7.75;7.75;;;;;29.70;37.19;101124.56;5040129;28;45212;-59
2023/09/15 07:20:57;;;;;;;;;6.75;6.75;;;;;29.75;37.69;101132.31;5038899;28;58080;-61
2023/09/15 07:23:23;;;;;;;;;7.50;6.50;;;;;29.74;37.72;101128.69;5039891;28;48803;-60
2023/09/15 07:25:48;;;;;;;;;10.25;10.25;;;;;29.68;37.32;101113.72;5037875;28;45510;-59
2023/09/15 07:28:14;;;;;;;;;8.50;8.50;;;;;29.81;37.50;101117.75;5038930;28;46245;-59
2023/09/15 07:30:41;;;;;;;;;11.50;7.75;;;;;29.82;37.43;101114.81;5032909;28;45376;-60
2023/09/15 07:33:06;;;;;;;;;11.25;10.00;;;;;29.76;37.45;101111.94;5037768;28;45255;-60
2023/09/15 07:35:31;;;;;;;;;11.50;6.75;;;;;29.75;37.12;101112.97;5040220;28;45390;-60
2023/09/15 07:37:57;;;;;;;;;6.25;6.25;;;;;29.76;37.56;101120.22;5041213;28;45473;-59
2023/09/15 07:40:22;;;;;;;;;9.00;9.00;;;;;29.85;36.89;101121.88;5038992;28;45507;-60
2023/09/15 07:42:48;;;;;;;;;9.25;9.25;;;;;29.77;37.08;101119.19;5039524;28;45462;-60
2023/09/15 07:45:14;;;;;;;;;9.25;9.25;;;;;29.85;37.05;101116.34;5040195;28;45612;-59
2023/09/15 07:47:39;;;;;;;;;7.00;7.00;;;;;29.98;36.99;101120.22;5040332;28;46207;-58
2023/09/15 07:50:06;;;;;;;;;9.50;8.00;;;;;29.97;37.20;101112.09;5039820;28;59879;-59
2023/09/15 07:52:31;;;;;;;;;7.25;7.25;;;;;29.95;37.40;101109.50;5036426;28;45346;-60
2023/09/15 07:54:57;;;;;;;;;8.50;7.25;;;;;29.91;36.87;101110.06;5039380;28;45593;-60
2023/09/15 07:57:22;;;;;;;;;8.00;7.00;;;;;29.95;36.79;101106.75;5040174;28;45304;-60
2023/09/15 07:59:47;;;;;;;;;8.25;8.00;;;;;30.05;36.74;101095.44;5040035;28;45306;-61
2023/09/15 08:02:13;;;;;;;;;7.25;7.25;;;;;30.16;37.10;101092.22;5035068;28;45486;-59
2023/09/15 08:04:39;;;;;;;;;8.00;8.00;;;;;30.19;37.01;101096.50;5039630;28;45328;-60
2023/09/15 08:07:06;;;;;;;;;8.50;8.50;;;;;30.27;36.77;101088.13;5040001;28;46986;-60
2023/09/15 08:09:31;;;;;;;;;8.25;8.25;;;;;30.35;36.58;101099.09;5039680;28;45368;-61
2023/09/15 08:11:59;;;;;;;;;7.00;7.00;;;;;30.29;36.60;101100.69;5032857;28;45491;-61
2023/09/15 08:14:25;;;;;;;;;10.50;8.75;;;;;30.30;37.26;101093.25;5038777;28;45308;-60
2023/09/15 08:16:51;;;;;;;;;9.50;9.00;;;;;30.52;36.81;101095.13;5046915;28;46408;-60
2023/09/15 08:19:17;;;;;;;;;7.50;6.75;;;;;30.28;36.28;101090.69;5039921;28;45395;-60
2023/09/15 08:21:42;;;;;;;;;10.50;9.00;;;;;30.18;36.41;101083.72;5039659;28;45265;-60
2023/09/15 08:24:07;;;;;;;;;11.00;10.25;;;;;30.11;36.94;101099.38;5055072;28;45254;-60
2023/09/15 08:26:33;;;;;;;;;6.50;6.50;;;;;30.13;36.59;101089.81;5039703;28;45306;-60
2023/09/15 08:28:58;;;;;;;;;9.75;9.75;;;;;30.11;36.99;101096.59;5039506;28;45327;-59
2023/09/15 08:31:25;;;;;;;;;9.00;7.75;;;;;30.13;36.53;101095.34;5039429;28;45615;-60
2023/09/15 08:33:52;;;;;;;;;9.50;9.50;;;;;30.09;37.51;101102.31;5039552;28;45871;-60
2023/09/15 08:36:18;;;;;;;;;11.75;9.75;;;;;30.03;36.91;101101.13;5035566;28;47044;-59
2023/09/15 08:38:43;;;;;;;;;10.50;8.75;;;;;30.14;37.10;101101.72;5039294;28;45454;-60
2023/09/15 08:41:17;;;;;;;;;8.00;8.00;;;;;30.25;37.41;101096.59;5039600;28;45358;-58
2023/09/15 08:43:43;;;;;;;;;7.25;7.25;;;;;30.35;36.96;101096.31;5038884;28;45342;-60
2023/09/15 08:46:08;;;;;;;;;10.50;8.75;;;;;30.42;36.92;101094.50;5039067;28;45381;-61
2023/09/15 08:48:40;;;;;;;;;8.25;8.00;;;;;30.39;36.80;101106.81;5037911;28;45678;-60
2023/09/15 08:51:06;;;;;;;;;7.50;7.50;;;;;30.42;36.54;101109.19;5026875;28;45899;-59
2023/09/15 08:53:32;;;;;;;;;9.25;9.25;;;;;30.51;36.89;101098.94;5039684;28;45291;-59
2023/09/15 08:55:58;;;;;;;;;10.25;10.25;;;;;30.49;36.73;101106.53;5039238;28;45489;-60
2023/09/15 08:58:25;;;;;;;;;14.50;10.50;;;;;30.57;36.70;101098.16;5040199;28;45395;-59
2023/09/15 09:00:53;;;;;;;;;8.25;7.00;;;;;30.61;36.49;101105.03;5039634;28;45479;-60
2023/09/15 09:03:23;;;;;;;;;9.25;9.25;;;;;30.54;36.41;101097.69;5039781;28;45314;-60
2023/09/15 09:05:49;;;;;;;;;11.25;11.25;;;;;30.49;36.15;101101.00;5038673;28;45372;-59
2023/09/15 09:08:21;;;;;;;;;8.50;8.50;;;;;30.48;36.52;101111.19;5039146;28;45284;-60
2023/09/15 09:10:48;;;;;;;;;9.75;9.75;;;;;30.47;36.55;101100.31;5031063;28;45327;-60
2023/09/15 09:13:14;;;;;;;;;10.75;7.00;;;;;30.45;36.48;101091.38;5039140;28;45562;-60
2023/09/15 09:15:41;;;;;;;;;8.75;8.75;;;;;30.63;36.82;101096.50;5038812;28;46002;-60
2023/09/15 09:18:16;;;;;;;;;10.25;8.75;;;;;30.57;36.28;101089.84;5039066;28;45373;-60
2023/09/15 09:20:43;;;;;;;;;11.25;11.25;;;;;30.66;36.23;101080.41;5037570;28;45436;-59
2023/09/15 09:23:09;;;;;;;;;8.75;8.75;;;;;30.80;35.79;101087.81;5037295;28;45573;-60
2023/09/15 09:25:35;;;;;;;;;7.75;7.75;;;;;30.73;35.87;101072.16;5038684;28;46129;-59
2023/09/15 09:28:01;;;;;;;;;4.50;4.50;;;;;30.77;36.33;101082.69;5037990;28;45388;-60
2023/09/15 09:30:29;;;;;;;;;9.00;9.00;;;;;30.79;36.46;101079.72;5038377;28;45273;-61
2023/09/15 09:32:56;;;;;;;;;10.00;10.00;;;;;30.83;35.89;101087.44;5038176;28;45424;-60
2023/09/15 09:35:21;;;;;;;;;10.50;7.50;;;;;30.99;35.90;101077.16;5038352;28;47099;-63
2023/09/15 09:37:47;;;;;;;;;7.00;7.00;;;;;30.99;35.63;101077.16;5036807;28;45427;-60
2023/09/15 09:40:13;;;;;;;;;9.50;6.25;;;;;31.05;35.11;101076.41;5034594;28;45190;-60
2023/09/15 09:42:38;;;;;;;;;9.00;9.00;;;;;31.08;35.17;101071.34;5041674;28;45463;-60
2023/09/15 09:45:04;;;;;;;;;9.50;9.50;;;;;31.07;35.91;101066.88;5038401;28;45412;-60
2023/09/15 09:47:30;;;;;;;;;7.00;7.00;;;;;31.22;35.51;101065.97;5034945;28;45508;-61
2023/09/15 09:49:55;;;;;;;;;7.00;7.00;;;;;31.36;36.01;101076.13;5038354;28;45286;-59
2023/09/15 09:52:22;;;;;;;;;8.25;6.50;;;;;31.38;35.61;101063.81;5038354;28;45293;-60
2023/09/15 09:54:50;;;;;;;;;7.25;6.50;;;;;31.49;35.01;101071.56;5038436;28;46125;-60
2023/09/15 09:57:16;;;;;;;;;13.50;10.50;;;;;31.57;35.25;101073.34;5037206;28;45427;-59
2023/09/15 09:59:43;;;;;;;;;14.00;8.75;;;;;31.63;35.24;101072.59;5038216;28;45331;-60
2023/09/15 10:02:08;;;;;;;;;11.00;10.75;;;;;31.72;35.33;101065.84;5038324;28;45428;-60
2023/09/15 10:04:33;;;;;;;;;9.50;9.50;;;;;31.78;35.24;101065.03;5038266;28;45336;-61
2023/09/15 10:06:59;;;;;;;;;9.50;9.50;;;;;31.84;35.15;101066.13;5040740;28;45233;-61
2023/09/15 10:09:25;;;;;;;;;6.00;6.00;;;;;31.87;34.64;101058.28;5042161;28;45418;-60
2023/09/15 10:11:53;;;;;;;;;10.25;10.25;;;;;31.94;35.55;101064.72;5041759;28;46149;-61
2023/09/15 10:14:19;;;;;;;;;9.50;8.75;;;;;32.00;34.88;101049.19;5039531;28;45457;-60
2023/09/15 10:16:46;;;;;;;;;9.00;9.00;;;;;32.13;34.96;101059.53;5038611;28;45316;-61
2023/09/15 10:19:14;;;;;;;;;8.25;8.25;;;;;32.18;35.14;101046.78;5042079;28;45529;-60
2023/09/15 10:21:40;;;;;;;;;6.00;6.00;;;;;32.23;34.87;101049.81;5041485;28;45506;-60
2023/09/15 10:24:08;;;;;;;;;8.75;8.75;;;;;32.23;34.32;101044.28;5042130;28;45379;-60
2023/09/15 10:26:37;;;;;;;;;9.25;8.00;;;;;32.30;34.36;101050.72;5041720;28;45344;-60
2023/09/15 10:29:04;;;;;;;;;7.75;7.75;;;;;32.44;34.86;101045.22;5041401;28;45398;-61
2023/09/15 10:31:30;;;;;;;;;8.00;8.00;;;;;32.41;34.92;101040.09;5041049;28;46049;-59
2023/09/15 10:33:59;;;;;;;;;7.50;6.75;;;;;32.49;34.74;101024.13;5041446;28;47174;-62
2023/09/15 10:36:27;;;;;;;;;7.75;7.00;;;;;32.56;33.58;101019.47;5041150;28;45545;-60
2023/09/15 10:38:54;;;;;;;;;7.25;7.25;;;;;32.53;33.93;101019.88;5041602;28;45296;-61
2023/09/15 10:41:29;;;;;;;;;6.50;6.50;;;;;32.60;33.58;101017.97;5041246;28;46014;-61
2023/09/15 10:43:55;;;;;;;;;10.25;8.50;;;;;32.72;33.72;101017.41;5039939;28;46096;-61
2023/09/15 10:46:20;;;;;;;;;7.50;7.50;;;;;32.80;33.47;101014.44;5041540;28;45301;-60
2023/09/15 10:48:47;;;;;;;;;9.25;7.75;;;;;32.88;32.93;101009.56;5040453;28;45367;-60
2023/09/15 10:51:18;;;;;;;;;8.00;7.50;;;;;33.02;33.03;101011.28;5041425;28;45594;-61
2023/09/15 10:53:46;;;;;;;;;6.00;6.00;;;;;33.11;32.64;101006.38;5041503;28;46991;-61
2023/09/15 10:56:13;;;;;;;;;6.25;6.25;;;;;33.24;32.81;101006.47;5041530;28;45272;-61
2023/09/15 10:58:39;;;;;;;;;5.50;5.50;;;;;33.30;32.57;100997.25;5041275;28;45351;-62
2023/09/15 11:01:05;;;;;;;;;7.00;5.75;;;;;33.47;32.16;100996.84;5041188;28;45409;-61
2023/09/15 11:03:33;;;;;;;;;8.00;7.00;;;;;33.65;32.03;100994.25;5041042;28;46125;-61
2023/09/15 11:05:58;;;;;;;;;5.25;5.25;;;;;33.77;31.63;100992.59;5040975;28;45232;-60
2023/09/15 11:08:25;;;;;;;;;6.00;6.00;;;;;33.88;31.78;100986.34;5041337;28;45352;-60
2023/09/15 11:10:59;;;;;;;;;6.25;6.25;;;;;34.14;31.39;100989.06;5041068;28;45550;-60
2023/09/15 11:13:25;;;;;;;;;8.75;7.00;;;;;34.26;31.52;100971.72;5040691;28;46004;-60
2023/09/15 11:15:51;;;;;;;;;6.25;6.25;;;;;34.57;31.75;100969.00;5041096;28;45269;-60
2023/09/15 11:18:17;;;;;;;;;8.75;7.25;;;;;34.82;30.05;100972.75;5040681;28;45391;-61
2023/09/15 11:20:43;;;;;;;;;8.50;8.50;;;;;34.85;30.39;100969.53;5041160;28;45563;-61
2023/09/15 11:23:08;;;;;;;;;8.00;6.50;;;;;35.14;30.36;100961.59;5040840;28;46467;-60
2023/09/15 11:25:34;;;;;;;;;8.25;8.25;;;;;35.38;30.19;100962.75;5041070;28;45401;-61
2023/09/15 11:28:00;;;;;;;;;6.50;6.50;;;;;35.58;29.79;100966.19;5038828;28;45382;-61
2023/09/15 11:30:26;;;;;;;;;5.75;5.75;;;;;35.60;29.33;100955.66;5040168;28;45364;-61
2023/09/15 11:32:53;;;;;;;;;5.00;5.00;;;;;35.75;29.54;100950.59;5040416;28;47067;-60
2023/09/15 11:35:20;;;;;;;;;6.25;6.25;;;;;35.71;28.94;100946.53;5040281;28;45466;-60
2023/09/15 11:37:45;;;;;;;;;6.00;6.00;;;;;35.76;29.04;100949.53;5040261;28;46281;-61
2023/09/15 11:40:23;;;;;;;;;4.75;4.75;;;;;36.02;26.25;100949.22;5037952;28;45375;-60
2023/09/15 11:42:56;;;;;;;;;5.00;5.00;;;;;36.04;27.78;100943.41;5039663;28;46467;-61
2023/09/15 11:45:25;;;;;;;;;5.00;5.00;;;;;36.22;28.33;100949.03;5040104;28;45485;-60
2023/09/15 11:47:51;;;;;;;;;6.25;6.00;;;;;36.29;28.14;100946.16;5040488;28;45305;-60
2023/09/15 11:50:17;;;;;;;;;7.75;6.75;;;;;36.46;27.60;100932.41;5039378;28;45404;-60
2023/09/15 11:52:42;;;;;;;;;9.25;7.75;;;;;36.53;27.40;100925.63;5039930;28;46108;-60
2023/09/15 11:55:29;;;;;;;;;7.75;7.75;;;;;36.70;27.46;100935.06;5028614;28;45377;-59
2023/09/15 11:57:56;;;;;;;;;6.00;6.00;;;;;36.80;27.10;100934.50;5028241;28;45454;-59
2023/09/15 12:00:24;;;;;;;;;5.25;4.75;;;;;36.80;25.91;100937.31;5039961;28;45409;-59
2023/09/15 12:02:54;;;;;;;;;4.00;4.00;;;;;36.81;26.18;100911.06;5038545;28;46154;-60
2023/09/15 12:05:22;;;;;;;;;4.00;4.00;;;;;36.93;26.15;100927.84;5030723;28;46508;-60
2023/09/15 12:07:48;;;;;;;;;5.00;4.00;;;;;37.05;25.50;100925.94;5038816;28;45485;-59
2023/09/15 12:10:15;;;;;;;;;5.00;3.00;;;;;37.15;24.54;100914.22;5043354;28;45650;-59
2023/09/15 12:12:42;;;;;;;;;5.75;4.75;;;;;37.08;24.25;100917.09;5039678;28;45419;-59
2023/09/15 12:15:08;;;;;;;;;3.00;3.00;;;;;37.18;24.79;100922.94;5039708;28;45395;-59
2023/09/15 12:17:34;;;;;;;;;4.00;4.00;;;;;36.94;24.28;100915.56;5039973;28;45332;-60
2023/09/15 12:20:04;;;;;;;;;5.00;4.50;;;;;37.17;24.67;100907.28;5038287;28;45557;-60
2023/09/15 12:22:34;;;;;;;;;3.50;3.50;;;;;37.38;24.81;100900.25;5049440;28;45378;-60
2023/09/15 12:25:00;;;;;;;;;3.00;3.00;;;;;37.45;24.32;100900.97;5039824;28;45416;-60
2023/09/15 12:27:27;;;;;;;;;5.00;3.00;;;;;37.49;24.36;100897.44;5039526;28;45361;-59
2023/09/15 12:29:53;;;;;;;;;2.50;2.50;;;;;37.28;24.62;100895.25;5038495;28;45350;-60
2023/09/15 12:32:26;;;;;;;;;4.25;4.25;;;;;37.53;24.82;100892.19;5039027;28;45460;-59
2023/09/15 12:34:52;;;;;;;;;5.25;4.25;;;;;37.70;24.95;100887.59;5037470;28;45596;-60
2023/09/15 12:37:18;;;;;;;;;4.50;4.50;;;;;37.64;22.92;100887.72;5033096;28;45677;-59
2023/09/15 12:39:43;;;;;;;;;4.00;4.00;;;;;37.70;23.17;100896.00;5038607;28;45498;-60
2023/09/15 12:42:08;;;;;;;;;4.75;3.75;;;;;37.77;22.84;100884.69;5038159;28;52742;-59
2023/09/15 12:44:33;;;;;;;;;4.50;4.00;;;;;38.01;23.64;100885.50;5037742;28;58882;-61
2023/09/15 12:46:59;;;;;;;;;5.25;4.00;;;;;38.05;22.72;100876.38;5039130;28;45689;-60
2023/09/15 12:49:24;;;;;;;;;3.75;3.75;;;;;38.30;22.96;100875.19;5038549;28;45539;-59
2023/09/15 12:51:50;;;;;;;;;3.00;3.00;;;;;38.50;22.28;100870.88;5039344;28;46130;-59
2023/09/15 12:54:15;;;;;;;;;2.25;2.25;;;;;38.79;23.30;100868.84;5034361;28;51564;-59
2023/09/15 12:56:40;;;;;;;;;4.75;4.00;;;;;39.04;21.74;100868.50;5039796;28;45328;-59
2023/09/15 12:59:06;;;;;;;;;3.00;2.25;;;;;39.18;20.34;100867.03;5038648;28;55042;-60
2023/09/15 13:01:31;;;;;;;;;5.00;3.25;;;;;39.12;20.06;100864.44;5039304;28;46193;-59
2023/09/15 13:03:57;;;;;;;;;3.25;3.25;;;;;39.35;21.29;100862.28;5038907;28;45387;-59
2023/09/15 13:06:22;;;;;;;;;3.25;2.25;;;;;39.70;20.14;100859.16;5039629;28;45470;-60
2023/09/15 13:08:48;;;;;;;;;5.00;5.00;;;;;39.76;20.26;100848.84;5039082;28;45489;-59
2023/09/15 13:11:14;;;;;;;;;3.75;3.00;;;;;39.87;19.56;100845.09;5039039;28;45354;-60
2023/09/15 13:13:40;;;;;;;;;2.25;2.25;;;;;40.07;20.44;100845.34;5038533;28;45367;-59
2023/09/15 13:16:05;;;;;;;;;3.25;3.25;;;;;40.32;19.32;100835.56;5038544;28;45463;-60
2023/09/15 13:18:31;;;;;;;;;4.00;4.00;;;;;40.43;18.51;100842.97;5038443;28;45725;-59
2023/09/15 13:20:56;;;;;;;;;4.00;2.50;;;;;40.50;18.82;100840.78;5039675;28;46225;-60
2023/09/15 13:23:21;;;;;;;;;1.00;1.00;;;;;40.59;18.06;100841.16;5038451;28;45435;-59
2023/09/15 13:25:47;;;;;;;;;4.00;4.00;;;;;40.93;18.20;100833.34;5038806;28;45403;-60
2023/09/15 13:28:12;;;;;;;;;4.00;2.50;;;;;41.09;18.59;100847.25;5037928;28;50741;-59
2023/09/15 13:30:39;;;;;;;;;4.00;4.00;;;;;41.11;17.74;100842.25;5038182;28;45358;-59
2023/09/15 13:33:06;;;;;;;;;3.75;3.75;;;;;41.07;18.24;100841.06;5038700;28;45347;-60
2023/09/15 13:35:32;;;;;;;;;3.00;3.00;;;;;41.29;17.59;100832.50;5037019;28;45347;-61
2023/09/15 13:37:58;;;;;;;;;4.00;2.00;;;;;41.63;18.07;100815.28;5028670;28;45410;-58
2023/09/15 13:40:23;;;;;;;;;2.75;2.50;;;;;41.82;17.21;100810.88;5036876;28;48361;-58
2023/09/15 13:42:48;;;;;;;;;3.00;3.00;;;;;41.88;17.11;100818.22;5038464;28;45618;-59
2023/09/15 13:45:14;;;;;;;;;2.50;2.00;;;;;42.14;17.50;100808.75;5038355;28;45303;-59
2023/09/15 13:47:39;;;;;;;;;2.25;2.25;;;;;42.27;17.41;100805.44;5038450;28;52366;-59
2023/09/15 13:50:05;;;;;;;;;2.75;2.00;;;;;42.58;17.35;100792.25;5038531;28;47502;-59
2023/09/15 13:52:31;;;;;;;;;3.25;3.25;;;;;42.77;16.50;100786.06;5038594;28;45822;-59
2023/09/15 13:54:57;;;;;;;;;2.25;2.25;;;;;43.02;16.84;100784.06;5038901;28;45327;-59
2023/09/15 13:57:23;;;;;;;;;5.25;3.50;;;;;42.91;16.07;100792.81;5037798;28;45857;-59
2023/09/15 13:59:49;;;;;;;;;3.00;3.00;;;;;43.00;17.00;100791.97;5038357;28;45352;-58
2023/09/15 14:02:15;;;;;;;;;2.50;2.50;;;;;42.80;15.90;100791.13;5038453;28;45357;-60
2023/09/15 14:04:41;;;;;;;;;2.25;2.25;;;;;42.39;16.62;100787.41;5038821;28;45371;-59
2023/09/15 14:07:06;;;;;;;;;3.00;2.50;;;;;41.75;16.79;100787.75;5037783;28;56572;-59
2023/09/15 14:09:33;;;;;;;;;2.00;2.00;;;;;41.01;17.38;100777.44;5038496;28;45462;-59
2023/09/15 14:11:59;;;;;;;;;5.00;2.25;;;;;40.36;17.92;100789.78;5038402;28;45261;-58
2023/09/15 14:14:24;;;;;;;;;2.00;2.00;;;;;40.64;17.36;100782.19;5038120;28;45364;-60
2023/09/15 14:16:50;;;;;;;;;3.00;3.00;;;;;40.81;17.26;100771.69;5035858;28;45549;-61
2023/09/15 14:19:15;;;;;;;;;2.75;2.75;;;;;41.09;17.59;100770.47;5038505;28;45965;-61
2023/09/15 14:21:42;;;;;;;;;2.25;2.25;;;;;41.21;17.23;100770.28;5037614;28;45917;-59
2023/09/15 14:24:07;;;;;;;;;4.00;2.00;;;;;41.49;17.08;100761.44;5038475;28;45333;-59
2023/09/15 14:26:32;;;;;;;;;5.50;3.00;;;;;42.20;16.82;100767.34;5038060;28;46539;-60
2023/09/15 14:28:58;;;;;;;;;4.50;2.50;;;;;43.09;16.44;100760.34;5038273;28;45386;-60
2023/09/15 14:31:24;;;;;;;;;5.00;3.50;;;;;44.23;15.63;100769.81;5037707;28;45315;-60
2023/09/15 14:33:50;;;;;;;;;4.00;2.50;;;;;44.71;14.67;100748.25;5029562;28;45386;-59
2023/09/15 14:36:15;;;;;;;;;3.00;2.00;;;;;45.56;13.28;100765.50;5032196;28;45645;-58
2023/09/15 14:38:40;;;;;;;;;3.00;3.00;;;;;46.18;14.04;100755.88;5035682;28;45496;-59
2023/09/15 14:41:06;;;;;;;;;2.50;2.50;;;;;46.73;13.29;100755.31;5037795;28;49675;-60
2023/09/15 14:43:31;;;;;;;;;4.00;2.00;;;;;46.56;13.21;100753.88;5037754;28;45324;-59
2023/09/15 14:45:56;;;;;;;;;2.33;2.33;;;;;46.97;13.30;100744.63;5036989;28;57312;-60
2023/09/15 14:48:22;;;;;;;;;2.50;2.50;;;;;47.14;13.22;100747.75;5036861;28;50732;-59
2023/09/15 14:50:47;;;;;;;;;2.75;2.75;;;;;47.61;12.75;100743.69;5033239;28;45490;-60
2023/09/15 14:53:13;;;;;;;;;2.75;2.25;;;;;47.84;12.15;100746.59;5038976;28;45419;-60
2023/09/15 14:55:38;;;;;;;;;2.00;2.00;;;;;47.82;12.80;100737.56;5040840;28;45351;-58
2023/09/15 14:58:03;;;;;;;;;2.75;2.75;;;;;48.28;12.67;100734.50;5040114;28;53279;-59
2023/09/15 15:00:30;;;;;;;;;2.00;2.00;;;;;48.65;12.99;100737.00;5041121;28;45462;-59
2023/09/15 15:02:55;;;;;;;;;2.00;2.00;;;;;48.66;12.77;100735.81;5036098;28;45173;-59
2023/09/15 15:05:20;;;;;;;;;1.00;1.00;;;;;48.36;13.82;100745.09;5040658;28;58746;-59
2023/09/15 15:07:46;;;;;;;;;2.50;2.50;;;;;48.46;12.96;100742.03;5040981;28;46051;-59
2023/09/15 15:10:11;;;;;;;;;3.75;3.75;;;;;48.15;13.19;100736.25;5040779;28;45357;-59
2023/09/15 15:12:38;;;;;;;;;2.00;2.00;;;;;47.64;13.39;100731.66;5038748;28;45359;-59
2023/09/15 15:15:04;;;;;;;;;3.00;2.25;;;;;47.04;13.96;100736.59;5040699;28;45539;-60
2023/09/15 15:17:29;;;;;;;;;2.50;2.25;;;;;46.69;14.20;100733.25;5040873;28;45362;-59
2023/09/15 15:19:55;;;;;;;;;1.25;1.25;;;;;46.06;14.45;100732.81;5040910;28;45330;-60
2023/09/15 15:22:22;;;;;;;;;2.00;2.00;;;;;45.80;14.96;100731.47;5040095;28;52233;-59
2023/09/15 15:24:47;;;;;;;;;1.50;1.50;;;;;45.91;14.83;100721.72;5040770;28;45529;-60
2023/09/15 15:27:12;;;;;;;;;1.00;1.00;;;;;46.22;14.75;100719.25;5039766;28;60333;-60
2023/09/15 15:29:38;;;;;;;;;3.25;3.25;;;;;46.23;14.57;100716.13;5039325;28;45379;-60
2023/09/15 15:32:04;;;;;;;;;4.50;4.25;;;;;46.10;14.69;100704.72;5032250;28;45391;-60
2023/09/15 15:34:29;;;;;;;;;2.00;2.00;;;;;46.18;14.56;100709.69;5035628;28;45414;-59
2023/09/15 15:36:56;;;;;;;;;4.75;4.00;;;;;46.31;14.56;100715.44;5048576;28;45399;-60
2023/09/15 15:39:22;;;;;;;;;4.00;4.00;;;;;46.31;14.65;100717.44;5040933;28;45292;-59
2023/09/15 15:41:47;;;;;;;;;5.00;3.75;;;;;46.29;15.04;100711.22;5040320;28;45506;-60
2023/09/15 15:44:12;;;;;;;;;4.50;3.50;;;;;46.38;14.91;100706.53;5038550;28;45661;-59
2023/09/15 15:46:38;;;;;;;;;2.00;2.00;;;;;46.45;14.21;100711.81;5039587;28;46864;-60
2023/09/15 15:49:04;;;;;;;;;3.75;3.75;;;;;46.51;14.71;100702.06;5039652;28;45289;-59
2023/09/15 15:51:29;;;;;;;;;3.75;3.25;;;;;46.69;14.89;100704.03;5040024;28;45327;-60